Helliar — 2EPP5 — position and weather

sailwx.info

Track history (hours):
 
Tides and Currents Weather Stations Pressure Air Temp Water Temp Dewpoint Dewpoint Depression Visibility Wind Speed Wind Dir Waves Ship Positions

Helliar

Last reported at 2015-Sep-03 06:33 UTC. Time now 2015-Sep-03 15:15 UTC.
Position N 59°02' W 002°32'.

Length 122 m; draft 5.1 m.

Type: Cargo ship. MMSI: 235087119.

Date/timePositionNaut miles runAvg speedWind from/ knotsBaromVisibWave heightAir tempDewpointWater temp
2015-Sep-03 06:33N 59°02' W 002°32'1211.9
2015-Sep-03 05:33N 59°01' W 002°54'2 2.2
2015-Sep-03 04:31N 58°60' W 002°58'4 4.4
2015-Sep-03 03:33N 59°00' W 002°50'1212.1
2015-Sep-03 02:33N 58°52' W 002°33'2510.4
2015-Sep-03 00:09N 58°29' W 002°17'5610.9
2015-Sep-02 19:03N 57°36' W 001°41'611.9
2015-Sep-02 18:33N 57°31' W 001°38'2311.6
2015-Sep-02 16:33N 57°10' W 001°59'4 3.6
2015-Sep-02 15:30N 57°09' W 002°05'0 0.0
2015-Sep-02 14:30N 57°09' W 002°05'0 0.0
2015-Sep-02 13:30N 57°09' W 002°05'0 0.0
2015-Sep-02 12:30N 57°09' W 002°05'0 0.0
2015-Sep-02 11:30N 57°09' W 002°05'0 0.0
2015-Sep-02 10:24N 57°09' W 002°05'0 0.0
2015-Sep-02 09:30N 57°09' W 002°05'0 0.0
2015-Sep-02 08:24N 57°09' W 002°05'0 0.0
2015-Sep-02 07:12N 57°09' W 002°05'0 0.0
2015-Sep-02 06:30N 57°09' W 002°05'0 0.0
2015-Sep-02 05:12N 57°09' W 002°05'0 0.0
2015-Sep-02 04:30N 57°09' W 002°05'0 0.0
2015-Sep-02 03:18N 57°09' W 002°05'0 0.0
2015-Sep-02 02:30N 57°09' W 002°05'0 0.0
2015-Sep-02 01:30N 57°09' W 002°05'0 0.0
2015-Sep-02 00:18N 57°09' W 002°05'0 0.0
2015-Sep-01 23:30N 57°09' W 002°05'0 0.0
2015-Sep-01 22:24N 57°09' W 002°05'0 0.0
2015-Sep-01 20:30N 57°09' W 002°05'0 0.0
2015-Sep-01 19:18N 57°09' W 002°05'0 0.0
2015-Sep-01 18:24N 57°09' W 002°05'0 0.0
2015-Sep-01 17:18N 57°09' W 002°05'0 0.0
2015-Sep-01 16:24N 57°09' W 002°05'0 0.0
2015-Sep-01 15:24N 57°09' W 002°05'0 0.0
2015-Sep-01 14:33N 57°09' W 002°05'0 0.0
2015-Sep-01 13:33N 57°09' W 002°05'0 0.0
2015-Sep-01 12:24N 57°09' W 002°05'0 0.0
2015-Sep-01 11:30N 57°09' W 002°05'0 0.0
2015-Sep-01 10:30N 57°09' W 002°05'0 0.0
2015-Sep-01 09:18N 57°09' W 002°05'0 0.0
2015-Sep-01 08:30N 57°09' W 002°05'0 0.0
2015-Sep-01 07:18N 57°09' W 002°05'0 0.4
2015-Sep-01 06:33N 57°09' W 002°05'2211.0
2015-Sep-01 04:33N 57°26' W 001°42'1812.8
2015-Sep-01 03:10N 57°44' W 001°36'  
2015-Aug-29 18:28N 57°47' W 001°38'1414.9
2015-Aug-29 17:33N 57°34' W 001°42'8 7.6
2015-Aug-29 16:33N 57°26' W 001°43'1614.6
2015-Aug-29 15:27N 57°12' W 001°58'5 5.6
2015-Aug-29 14:31N 57°09' W 002°05'0 0.0
2015-Aug-29 13:31N 57°09' W 002°05'0 0.0
2015-Aug-29 12:25N 57°09' W 002°05'0 0.0
2015-Aug-29 11:31N 57°09' W 002°05'0 0.0
2015-Aug-29 10:25N 57°09' W 002°05'0 0.0
2015-Aug-29 09:25N 57°09' W 002°05'0 0.0
2015-Aug-29 07:31N 57°09' W 002°05'0 0.1
2015-Aug-29 06:33N 57°09' W 002°05'2110.5
2015-Aug-29 04:33N 57°26' W 001°43'1212.0
2015-Aug-29 03:34N 57°37' W 001°37'1313.3
2015-Aug-29 02:33N 57°51' W 001°36'7 0.2
2015-Aug-27 19:33N 57°44' W 001°39'1514.5
2015-Aug-27 18:33N 57°30' W 001°42'2114.8
2015-Aug-27 17:09N 57°11' W 002°00'4 5.6
2015-Aug-27 16:31N 57°09' W 002°05'0 0.0
2015-Aug-27 15:25N 57°09' W 002°05'0 0.0
2015-Aug-27 14:25N 57°09' W 002°05'0 0.0
2015-Aug-27 13:31N 57°09' W 002°05'0 0.0
2015-Aug-27 12:28N 57°09' W 002°05'0 0.0
2015-Aug-27 11:28N 57°09' W 002°05'0 0.0
2015-Aug-27 10:25N 57°09' W 002°05'0 0.0
2015-Aug-27 09:31N 57°09' W 002°05'0 0.0
2015-Aug-27 08:31N 57°09' W 002°05'0 0.0
2015-Aug-27 07:25N 57°09' W 002°05'0 0.1
2015-Aug-27 06:32N 57°09' W 002°05'2211.2
2015-Aug-27 04:33N 57°27' W 001°43'1212.4
2015-Aug-27 03:33N 57°39' W 001°38'8 0.3
2015-Aug-25 18:33N 57°31' W 001°41'2612.9
2015-Aug-25 16:33N 57°09' W 002°05'0 0.1
2015-Aug-25 15:04N 57°09' W 002°05'0 0.0
2015-Aug-25 14:28N 57°09' W 002°05'0 0.0
2015-Aug-25 13:28N 57°09' W 002°05'0 0.0
2015-Aug-25 12:28N 57°09' W 002°05'0 0.0
2015-Aug-25 11:28N 57°09' W 002°05'0 0.0
2015-Aug-25 10:28N 57°09' W 002°05'0 0.0
2015-Aug-25 09:28N 57°09' W 002°05'0 0.0
2015-Aug-25 08:28N 57°09' W 002°05'0 0.0
2015-Aug-25 07:28N 57°09' W 002°05'0 0.0
2015-Aug-25 06:28N 57°09' W 002°05'0 0.0
2015-Aug-25 05:28N 57°09' W 002°05'1 0.6
2015-Aug-25 04:32N 57°08' W 002°04'1611.9
2015-Aug-25 03:09N 57°22' W 001°46'711.9
2015-Aug-25 02:34N 57°27' W 001°39'9213.1
2015-Aug-24 19:33N 58°54' W 002°36'1312.9
2015-Aug-24 18:33N 59°01' W 002°57'2 1.6
2015-Aug-24 17:31N 58°60' W 002°58'0 0.0
2015-Aug-24 16:31N 58°60' W 002°58'0 0.0
2015-Aug-24 15:31N 58°60' W 002°58'0 0.0
2015-Aug-24 14:34N 58°60' W 002°58'0 0.0
2015-Aug-24 13:31N 58°60' W 002°58'0 0.0
2015-Aug-24 12:31N 58°60' W 002°58'0 0.0
2015-Aug-24 11:31N 58°60' W 002°58'0 0.0
2015-Aug-24 10:28N 58°60' W 002°58'0 0.0
2015-Aug-24 09:31N 58°60' W 002°58'0 0.0
2015-Aug-24 08:31N 58°60' W 002°58'0 0.0
2015-Aug-24 07:31N 58°60' W 002°58'0 0.0
2015-Aug-24 06:34N 58°60' W 002°58'  
Track history (hours):
 
Tides and Currents Weather Stations Pressure Air Temp Water Temp Dewpoint Dewpoint Depression Visibility Wind Speed Wind Dir Waves Ship Positions

Helliar

Last reported at 2015-Sep-03 06:33 UTC. Time now 2015-Sep-03 15:15 UTC.
Position N 59°02' W 002°32'.

Length 122 m; draft 5.1 m.

Type: Cargo ship. MMSI: 235087119.

Date/timePositionNaut miles runAvg speedWind from/ knotsBaromVisibWave heightAir tempDewpointWater temp
2015-Sep-03 06:33N 59°02' W 002°32'1211.9
2015-Sep-03 05:33N 59°01' W 002°54'2 2.2
2015-Sep-03 04:31N 58°60' W 002°58'4 4.4
2015-Sep-03 03:33N 59°00' W 002°50'1212.1
2015-Sep-03 02:33N 58°52' W 002°33'2510.4
2015-Sep-03 00:09N 58°29' W 002°17'5610.9
2015-Sep-02 19:03N 57°36' W 001°41'611.9
2015-Sep-02 18:33N 57°31' W 001°38'2311.6
2015-Sep-02 16:33N 57°10' W 001°59'4 3.6
2015-Sep-02 15:30N 57°09' W 002°05'0 0.0
2015-Sep-02 14:30N 57°09' W 002°05'0 0.0
2015-Sep-02 13:30N 57°09' W 002°05'0 0.0
2015-Sep-02 12:30N 57°09' W 002°05'0 0.0
2015-Sep-02 11:30N 57°09' W 002°05'0 0.0
2015-Sep-02 10:24N 57°09' W 002°05'0 0.0
2015-Sep-02 09:30N 57°09' W 002°05'0 0.0
2015-Sep-02 08:24N 57°09' W 002°05'0 0.0
2015-Sep-02 07:12N 57°09' W 002°05'0 0.0
2015-Sep-02 06:30N 57°09' W 002°05'0 0.0
2015-Sep-02 05:12N 57°09' W 002°05'0 0.0
2015-Sep-02 04:30N 57°09' W 002°05'0 0.0
2015-Sep-02 03:18N 57°09' W 002°05'0 0.0
2015-Sep-02 02:30N 57°09' W 002°05'0 0.0
2015-Sep-02 01:30N 57°09' W 002°05'0 0.0
2015-Sep-02 00:18N 57°09' W 002°05'0 0.0
2015-Sep-01 23:30N 57°09' W 002°05'0 0.0
2015-Sep-01 22:24N 57°09' W 002°05'0 0.0
2015-Sep-01 20:30N 57°09' W 002°05'0 0.0
2015-Sep-01 19:18N 57°09' W 002°05'0 0.0
2015-Sep-01 18:24N 57°09' W 002°05'0 0.0
2015-Sep-01 17:18N 57°09' W 002°05'0 0.0
2015-Sep-01 16:24N 57°09' W 002°05'0 0.0
2015-Sep-01 15:24N 57°09' W 002°05'0 0.0
2015-Sep-01 14:33N 57°09' W 002°05'0 0.0
2015-Sep-01 13:33N 57°09' W 002°05'0 0.0
2015-Sep-01 12:24N 57°09' W 002°05'0 0.0
2015-Sep-01 11:30N 57°09' W 002°05'0 0.0
2015-Sep-01 10:30N 57°09' W 002°05'0 0.0
2015-Sep-01 09:18N 57°09' W 002°05'0 0.0
2015-Sep-01 08:30N 57°09' W 002°05'0 0.0
2015-Sep-01 07:18N 57°09' W 002°05'0 0.4
2015-Sep-01 06:33N 57°09' W 002°05'2211.0
2015-Sep-01 04:33N 57°26' W 001°42'1812.8
2015-Sep-01 03:10N 57°44' W 001°36'  
2015-Aug-29 18:28N 57°47' W 001°38'1414.9
2015-Aug-29 17:33N 57°34' W 001°42'8 7.6
2015-Aug-29 16:33N 57°26' W 001°43'1614.6
2015-Aug-29 15:27N 57°12' W 001°58'5 5.6
2015-Aug-29 14:31N 57°09' W 002°05'0 0.0
2015-Aug-29 13:31N 57°09' W 002°05'0 0.0
2015-Aug-29 12:25N 57°09' W 002°05'0 0.0
2015-Aug-29 11:31N 57°09' W 002°05'0 0.0
2015-Aug-29 10:25N 57°09' W 002°05'0 0.0
2015-Aug-29 09:25N 57°09' W 002°05'0 0.0
2015-Aug-29 07:31N 57°09' W 002°05'0 0.1
2015-Aug-29 06:33N 57°09' W 002°05'2110.5
2015-Aug-29 04:33N 57°26' W 001°43'1212.0
2015-Aug-29 03:34N 57°37' W 001°37'1313.3
2015-Aug-29 02:33N 57°51' W 001°36'7 0.2
2015-Aug-27 19:33N 57°44' W 001°39'1514.5
2015-Aug-27 18:33N 57°30' W 001°42'2114.8
2015-Aug-27 17:09N 57°11' W 002°00'4 5.6
2015-Aug-27 16:31N 57°09' W 002°05'0 0.0
2015-Aug-27 15:25N 57°09' W 002°05'0 0.0
2015-Aug-27 14:25N 57°09' W 002°05'0 0.0
2015-Aug-27 13:31N 57°09' W 002°05'0 0.0
2015-Aug-27 12:28N 57°09' W 002°05'0 0.0
2015-Aug-27 11:28N 57°09' W 002°05'0 0.0
2015-Aug-27 10:25N 57°09' W 002°05'0 0.0
2015-Aug-27 09:31N 57°09' W 002°05'0 0.0
2015-Aug-27 08:31N 57°09' W 002°05'0 0.0
2015-Aug-27 07:25N 57°09' W 002°05'0 0.1
2015-Aug-27 06:32N 57°09' W 002°05'2211.2
2015-Aug-27 04:33N 57°27' W 001°43'1212.4
2015-Aug-27 03:33N 57°39' W 001°38'8 0.3
2015-Aug-25 18:33N 57°31' W 001°41'2612.9
2015-Aug-25 16:33N 57°09' W 002°05'0 0.1
2015-Aug-25 15:04N 57°09' W 002°05'0 0.0
2015-Aug-25 14:28N 57°09' W 002°05'0 0.0
2015-Aug-25 13:28N 57°09' W 002°05'0 0.0
2015-Aug-25 12:28N 57°09' W 002°05'0 0.0
2015-Aug-25 11:28N 57°09' W 002°05'0 0.0
2015-Aug-25 10:28N 57°09' W 002°05'0 0.0
2015-Aug-25 09:28N 57°09' W 002°05'0 0.0
2015-Aug-25 08:28N 57°09' W 002°05'0 0.0
2015-Aug-25 07:28N 57°09' W 002°05'0 0.0
2015-Aug-25 06:28N 57°09' W 002°05'0 0.0
2015-Aug-25 05:28N 57°09' W 002°05'1 0.6
2015-Aug-25 04:32N 57°08' W 002°04'1611.9
2015-Aug-25 03:09N 57°22' W 001°46'711.9
2015-Aug-25 02:34N 57°27' W 001°39'9213.1
2015-Aug-24 19:33N 58°54' W 002°36'1312.9
2015-Aug-24 18:33N 59°01' W 002°57'2 1.6
2015-Aug-24 17:31N 58°60' W 002°58'0 0.0
2015-Aug-24 16:31N 58°60' W 002°58'0 0.0
2015-Aug-24 15:31N 58°60' W 002°58'0 0.0
2015-Aug-24 14:34N 58°60' W 002°58'0 0.0
2015-Aug-24 13:31N 58°60' W 002°58'0 0.0
2015-Aug-24 12:31N 58°60' W 002°58'0 0.0
2015-Aug-24 11:31N 58°60' W 002°58'0 0.0
2015-Aug-24 10:28N 58°60' W 002°58'0 0.0
2015-Aug-24 09:31N 58°60' W 002°58'0 0.0
2015-Aug-24 08:31N 58°60' W 002°58'0 0.0
2015-Aug-24 07:31N 58°60' W 002°58'0 0.0
2015-Aug-24 06:34N 58°60' W 002°58'  

Dump ship's entire track history